sensor_id;sensor_type;location;lat;lon;timestamp;P1;durP1;ratioP1;P2;durP2;ratioP2
40503;SDS011;42292;49.048;8.374;2022-08-01T04:02:25;4.20;;;3.00;;
40503;SDS011;42292;49.048;8.374;2022-08-01T04:04:53;5.20;;;3.10;;
40503;SDS011;42292;49.048;8.374;2022-08-01T04:12:30;5.22;;;2.80;;
40503;SDS011;42292;49.048;8.374;2022-08-01T04:14:56;4.30;;;2.65;;
40503;SDS011;42292;49.048;8.374;2022-08-01T04:17:21;3.78;;;2.53;;
40503;SDS011;42292;49.048;8.374;2022-08-01T04:19:47;3.30;;;2.88;;
40503;SDS011;42292;49.048;8.374;2022-08-01T04:22:15;3.15;;;2.45;;
40503;SDS011;42292;49.048;8.374;2022-08-01T04:24:41;4.13;;;3.03;;
40503;SDS011;42292;49.048;8.374;2022-08-01T04:27:16;3.35;;;2.63;;
40503;SDS011;42292;49.048;8.374;2022-08-01T04:29:46;3.15;;;2.65;;
40503;SDS011;42292;49.048;8.374;2022-08-01T04:32:16;3.80;;;2.83;;
40503;SDS011;42292;49.048;8.374;2022-08-01T04:34:45;5.05;;;2.90;;
40503;SDS011;42292;49.048;8.374;2022-08-01T04:37:12;4.03;;;2.73;;
40503;SDS011;42292;49.048;8.374;2022-08-01T04:39:41;3.80;;;2.67;;
40503;SDS011;42292;49.048;8.374;2022-08-01T04:42:11;5.13;;;2.88;;
40503;SDS011;42292;49.048;8.374;2022-08-01T04:44:39;4.32;;;2.65;;
40503;SDS011;42292;49.048;8.374;2022-08-01T04:47:05;3.38;;;2.65;;
40503;SDS011;42292;49.048;8.374;2022-08-01T04:49:33;3.60;;;2.70;;
40503;SDS011;42292;49.048;8.374;2022-08-01T04:52:01;4.30;;;2.60;;
40503;SDS011;42292;49.048;8.374;2022-08-01T04:54:31;2.97;;;2.67;;
40503;SDS011;42292;49.048;8.374;2022-08-01T04:57:02;5.43;;;2.70;;
40503;SDS011;42292;49.048;8.374;2022-08-01T04:59:29;3.97;;;2.53;;
40503;SDS011;42292;49.048;8.374;2022-08-01T05:07:24;3.60;;;2.55;;
40503;SDS011;42292;49.048;8.374;2022-08-01T05:09:50;3.73;;;2.90;;
40503;SDS011;42292;49.048;8.374;2022-08-01T05:12:18;4.32;;;2.75;;
40503;SDS011;42292;49.048;8.374;2022-08-01T05:14:44;3.93;;;2.70;;
40503;SDS011;42292;49.048;8.374;2022-08-01T05:17:10;6.60;;;2.92;;
40503;SDS011;42292;49.048;8.374;2022-08-01T05:19:37;4.47;;;2.90;;
40503;SDS011;42292;49.048;8.374;2022-08-01T05:22:08;4.65;;;2.53;;
40503;SDS011;42292;49.048;8.374;2022-08-01T05:24:35;3.47;;;2.67;;
40503;SDS011;42292;49.048;8.374;2022-08-01T05:27:07;5.53;;;2.83;;
40503;SDS011;42292;49.048;8.374;2022-08-01T05:29:34;4.75;;;2.63;;
40503;SDS011;42292;49.048;8.374;2022-08-01T05:32:02;6.00;;;2.90;;
40503;SDS011;42292;49.048;8.374;2022-08-01T05:34:28;4.90;;;2.97;;
40503;SDS011;42292;49.048;8.374;2022-08-01T05:36:53;4.90;;;3.20;;
40503;SDS011;42292;49.048;8.374;2022-08-01T05:39:19;10.20;;;2.80;;
40503;SDS011;42292;49.048;8.374;2022-08-01T05:41:45;4.65;;;3.10;;
40503;SDS011;42292;49.048;8.374;2022-08-01T05:44:10;8.88;;;2.70;;
40503;SDS011;42292;49.048;8.374;2022-08-01T05:46:36;4.97;;;2.70;;
40503;SDS011;42292;49.048;8.374;2022-08-01T05:49:05;4.20;;;2.50;;
40503;SDS011;42292;49.048;8.374;2022-08-01T05:51:31;5.95;;;2.70;;
40503;SDS011;42292;49.048;8.374;2022-08-01T05:53:57;7.20;;;3.30;;
40503;SDS011;42292;49.048;8.374;2022-08-01T05:56:24;4.63;;;2.72;;
40503;SDS011;42292;49.048;8.374;2022-08-01T05:58:52;3.38;;;2.30;;
40503;SDS011;42292;49.048;8.374;2022-08-01T06:01:20;4.43;;;2.47;;
40503;SDS011;42292;49.048;8.374;2022-08-01T06:03:46;5.25;;;2.78;;
40503;SDS011;42292;49.048;8.374;2022-08-01T06:06:11;5.60;;;2.50;;
40503;SDS011;42292;49.048;8.374;2022-08-01T06:08:40;3.80;;;2.72;;
40503;SDS011;42292;49.048;8.374;2022-08-01T06:11:05;3.00;;;2.60;;
40503;SDS011;42292;49.048;8.374;2022-08-01T06:13:31;4.30;;;2.42;;
40503;SDS011;42292;49.048;8.374;2022-08-01T06:15:57;4.20;;;2.40;;
40503;SDS011;42292;49.048;8.374;2022-08-01T06:18:23;3.63;;;2.60;;
40503;SDS011;42292;49.048;8.374;2022-08-01T06:20:49;6.70;;;2.87;;
40503;SDS011;42292;49.048;8.374;2022-08-01T06:23:14;4.87;;;2.63;;
40503;SDS011;42292;49.048;8.374;2022-08-01T06:25:41;4.20;;;2.58;;
40503;SDS011;42292;49.048;8.374;2022-08-01T06:28:09;5.65;;;2.72;;
40503;SDS011;42292;49.048;8.374;2022-08-01T06:30:35;4.78;;;2.65;;
40503;SDS011;42292;49.048;8.374;2022-08-01T06:33:01;5.13;;;2.60;;
40503;SDS011;42292;49.048;8.374;2022-08-01T06:35:29;4.80;;;2.73;;
40503;SDS011;42292;49.048;8.374;2022-08-01T06:37:55;3.58;;;2.17;;
40503;SDS011;42292;49.048;8.374;2022-08-01T06:40:21;5.75;;;2.15;;
40503;SDS011;42292;49.048;8.374;2022-08-01T06:42:47;4.90;;;2.30;;
40503;SDS011;42292;49.048;8.374;2022-08-01T06:45:13;4.15;;;2.10;;
40503;SDS011;42292;49.048;8.374;2022-08-01T06:47:39;5.35;;;2.20;;
40503;SDS011;42292;49.048;8.374;2022-08-01T06:50:06;5.43;;;2.45;;
40503;SDS011;42292;49.048;8.374;2022-08-01T06:52:35;4.70;;;1.65;;
40503;SDS011;42292;49.048;8.374;2022-08-01T06:55:01;3.63;;;1.80;;
40503;SDS011;42292;49.048;8.374;2022-08-01T06:57:27;2.90;;;1.40;;
40503;SDS011;42292;49.048;8.374;2022-08-01T06:59:54;4.07;;;1.73;;
40503;SDS011;42292;49.048;8.374;2022-08-01T07:02:21;5.10;;;1.80;;
40503;SDS011;42292;49.048;8.374;2022-08-01T07:04:49;3.15;;;1.60;;
40503;SDS011;42292;49.048;8.374;2022-08-01T07:07:15;3.80;;;1.80;;
40503;SDS011;42292;49.048;8.374;2022-08-01T07:09:40;2.77;;;1.40;;
40503;SDS011;42292;49.048;8.374;2022-08-01T07:12:07;3.53;;;1.52;;
40503;SDS011;42292;49.048;8.374;2022-08-01T07:14:35;2.83;;;1.70;;
40503;SDS011;42292;49.048;8.374;2022-08-01T07:17:01;1.75;;;1.40;;
40503;SDS011;42292;49.048;8.374;2022-08-01T07:19:26;2.45;;;1.30;;
40503;SDS011;42292;49.048;8.374;2022-08-01T07:21:52;3.50;;;1.55;;
40503;SDS011;42292;49.048;8.374;2022-08-01T07:24:18;2.88;;;1.50;;
40503;SDS011;42292;49.048;8.374;2022-08-01T07:26:47;4.30;;;1.42;;
40503;SDS011;42292;49.048;8.374;2022-08-01T07:29:13;1.55;;;0.95;;
40503;SDS011;42292;49.048;8.374;2022-08-01T07:31:39;1.60;;;1.00;;
40503;SDS011;42292;49.048;8.374;2022-08-01T07:34:04;2.33;;;1.30;;
40503;SDS011;42292;49.048;8.374;2022-08-01T07:36:32;1.90;;;1.10;;
40503;SDS011;42292;49.048;8.374;2022-08-01T07:39:00;2.33;;;1.00;;
40503;SDS011;42292;49.048;8.374;2022-08-01T07:41:26;2.70;;;1.17;;
40503;SDS011;42292;49.048;8.374;2022-08-01T07:43:54;2.17;;;1.25;;
40503;SDS011;42292;49.048;8.374;2022-08-01T07:46:20;3.90;;;1.20;;
40503;SDS011;42292;49.048;8.374;2022-08-01T07:48:50;3.10;;;1.30;;
40503;SDS011;42292;49.048;8.374;2022-08-01T07:51:18;2.97;;;1.23;;
40503;SDS011;42292;49.048;8.374;2022-08-01T07:53:44;1.50;;;0.90;;
40503;SDS011;42292;49.048;8.374;2022-08-01T07:56:09;2.37;;;1.10;;
40503;SDS011;42292;49.048;8.374;2022-08-01T07:58:37;1.38;;;0.93;;
40503;SDS011;42292;49.048;8.374;2022-08-01T08:01:03;1.75;;;1.15;;
40503;SDS011;42292;49.048;8.374;2022-08-01T08:03:28;3.58;;;1.25;;
40503;SDS011;42292;49.048;8.374;2022-08-01T08:05:56;4.17;;;1.67;;
40503;SDS011;42292;49.048;8.374;2022-08-01T08:08:22;2.78;;;1.30;;
40503;SDS011;42292;49.048;8.374;2022-08-01T08:10:50;2.72;;;1.10;;
40503;SDS011;42292;49.048;8.374;2022-08-01T08:13:16;3.20;;;1.25;;
40503;SDS011;42292;49.048;8.374;2022-08-01T08:15:41;3.60;;;1.10;;
40503;SDS011;42292;49.048;8.374;2022-08-01T08:18:09;3.85;;;1.30;;
40503;SDS011;42292;49.048;8.374;2022-08-01T08:20:35;3.95;;;1.35;;
40503;SDS011;42292;49.048;8.374;2022-08-01T08:23:03;4.50;;;1.40;;
40503;SDS011;42292;49.048;8.374;2022-08-01T08:25:51;2.72;;;1.75;;
40503;SDS011;42292;49.048;8.374;2022-08-01T08:28:17;4.73;;;1.50;;
40503;SDS011;42292;49.048;8.374;2022-08-01T08:30:42;2.30;;;1.27;;
40503;SDS011;42292;49.048;8.374;2022-08-01T08:33:10;2.08;;;1.00;;
40503;SDS011;42292;49.048;8.374;2022-08-01T08:35:35;7.82;;;1.20;;
40503;SDS011;42292;49.048;8.374;2022-08-01T08:38:03;2.00;;;1.00;;
40503;SDS011;42292;49.048;8.374;2022-08-01T08:40:31;2.88;;;1.00;;
40503;SDS011;42292;49.048;8.374;2022-08-01T08:43:03;2.58;;;1.00;;
40503;SDS011;42292;49.048;8.374;2022-08-01T08:45:30;2.30;;;1.30;;
40503;SDS011;42292;49.048;8.374;2022-08-01T08:47:58;2.20;;;1.00;;
40503;SDS011;42292;49.048;8.374;2022-08-01T08:50:29;2.97;;;1.10;;
40503;SDS011;42292;49.048;8.374;2022-08-01T08:52:55;2.20;;;1.00;;
40503;SDS011;42292;49.048;8.374;2022-08-01T08:55:25;1.77;;;1.08;;
40503;SDS011;42292;49.048;8.374;2022-08-01T08:57:54;2.60;;;1.10;;
40503;SDS011;42292;49.048;8.374;2022-08-01T09:00:21;1.80;;;1.00;;
40503;SDS011;42292;49.048;8.374;2022-08-01T09:02:48;2.38;;;1.10;;
40503;SDS011;42292;49.048;8.374;2022-08-01T09:05:20;1.27;;;0.85;;
40503;SDS011;42292;49.048;8.374;2022-08-01T09:07:51;1.98;;;1.05;;
40503;SDS011;42292;49.048;8.374;2022-08-01T09:10:17;1.90;;;1.20;;
40503;SDS011;42292;49.048;8.374;2022-08-01T09:18:08;2.53;;;1.17;;
40503;SDS011;42292;49.048;8.374;2022-08-01T09:20:34;2.27;;;1.10;;
40503;SDS011;42292;49.048;8.374;2022-08-01T09:23:00;3.55;;;1.20;;
40503;SDS011;42292;49.048;8.374;2022-08-01T09:25:26;2.03;;;1.10;;
40503;SDS011;42292;49.048;8.374;2022-08-01T09:28:04;2.80;;;0.90;;
40503;SDS011;42292;49.048;8.374;2022-08-01T09:30:36;1.48;;;1.00;;
40503;SDS011;42292;49.048;8.374;2022-08-01T09:33:03;1.88;;;0.98;;
40503;SDS011;42292;49.048;8.374;2022-08-01T09:35:34;2.10;;;1.08;;
40503;SDS011;42292;49.048;8.374;2022-08-01T09:41:02;3.55;;;1.10;;
40503;SDS011;42292;49.048;8.374;2022-08-01T09:43:32;1.98;;;1.10;;
40503;SDS011;42292;49.048;8.374;2022-08-01T09:45:58;2.97;;;1.40;;
40503;SDS011;42292;49.048;8.374;2022-08-01T09:48:25;3.00;;;1.20;;
40503;SDS011;42292;49.048;8.374;2022-08-01T09:50:52;2.53;;;1.10;;
40503;SDS011;42292;49.048;8.374;2022-08-01T09:53:18;2.20;;;0.98;;
40503;SDS011;42292;49.048;8.374;2022-08-01T09:55:44;2.83;;;1.40;;
40503;SDS011;42292;49.048;8.374;2022-08-01T09:58:10;2.90;;;1.13;;
40503;SDS011;42292;49.048;8.374;2022-08-01T10:00:37;3.10;;;1.13;;
40503;SDS011;42292;49.048;8.374;2022-08-01T10:03:22;3.15;;;1.05;;
40503;SDS011;42292;49.048;8.374;2022-08-01T10:05:49;3.08;;;0.90;;
40503;SDS011;42292;49.048;8.374;2022-08-01T10:08:16;1.20;;;0.80;;
40503;SDS011;42292;49.048;8.374;2022-08-01T10:13:53;1.98;;;1.10;;
40503;SDS011;42292;49.048;8.374;2022-08-01T10:16:19;1.40;;;0.95;;
40503;SDS011;42292;49.048;8.374;2022-08-01T10:18:49;1.20;;;0.98;;
40503;SDS011;42292;49.048;8.374;2022-08-01T10:21:15;2.15;;;1.20;;
40503;SDS011;42292;49.048;8.374;2022-08-01T10:23:41;1.10;;;0.98;;
40503;SDS011;42292;49.048;8.374;2022-08-01T10:26:08;2.90;;;1.20;;
40503;SDS011;42292;49.048;8.374;2022-08-01T10:28:37;2.20;;;1.20;;
40503;SDS011;42292;49.048;8.374;2022-08-01T10:31:03;3.05;;;1.02;;
40503;SDS011;42292;49.048;8.374;2022-08-01T10:33:32;1.55;;;1.02;;
40503;SDS011;42292;49.048;8.374;2022-08-01T10:35:58;2.00;;;1.10;;
40503;SDS011;42292;49.048;8.374;2022-08-01T10:38:27;1.65;;;1.13;;
40503;SDS011;42292;49.048;8.374;2022-08-01T10:40:55;3.08;;;1.30;;
40503;SDS011;42292;49.048;8.374;2022-08-01T10:43:23;1.60;;;1.23;;
40503;SDS011;42292;49.048;8.374;2022-08-01T10:45:49;1.80;;;1.15;;
40503;SDS011;42292;49.048;8.374;2022-08-01T10:49:04;2.60;;;1.20;;
40503;SDS011;42292;49.048;8.374;2022-08-01T10:51:09;1.33;;;1.10;;
40503;SDS011;42292;49.048;8.374;2022-08-01T10:53:35;2.28;;;1.10;;
40503;SDS011;42292;49.048;8.374;2022-08-01T10:56:10;2.15;;;1.10;;
40503;SDS011;42292;49.048;8.374;2022-08-01T10:58:39;2.30;;;1.40;;
40503;SDS011;42292;49.048;8.374;2022-08-01T11:03:58;4.30;;;1.17;;
40503;SDS011;42292;49.048;8.374;2022-08-01T11:06:42;1.90;;;1.30;;
40503;SDS011;42292;49.048;8.374;2022-08-01T11:14:26;3.13;;;1.40;;
40503;SDS011;42292;49.048;8.374;2022-08-01T11:16:54;2.10;;;1.20;;
40503;SDS011;42292;49.048;8.374;2022-08-01T11:19:25;1.70;;;1.20;;
40503;SDS011;42292;49.048;8.374;2022-08-01T11:22:31;2.33;;;1.10;;
40503;SDS011;42292;49.048;8.374;2022-08-01T11:24:57;2.90;;;1.10;;
40503;SDS011;42292;49.048;8.374;2022-08-01T11:27:27;2.47;;;1.10;;
40503;SDS011;42292;49.048;8.374;2022-08-01T11:32:45;3.58;;;1.50;;
40503;SDS011;42292;49.048;8.374;2022-08-01T11:35:16;2.78;;;1.30;;
40503;SDS011;42292;49.048;8.374;2022-08-01T11:37:42;2.33;;;1.20;;
40503;SDS011;42292;49.048;8.374;2022-08-01T11:40:15;2.47;;;1.20;;
40503;SDS011;42292;49.048;8.374;2022-08-01T11:42:46;1.42;;;1.10;;
40503;SDS011;42292;49.048;8.374;2022-08-01T11:45:46;2.65;;;1.50;;
40503;SDS011;42292;49.048;8.374;2022-08-01T11:48:22;1.45;;;1.25;;
40503;SDS011;42292;49.048;8.374;2022-08-01T11:50:54;1.77;;;1.08;;
40503;SDS011;42292;49.048;8.374;2022-08-01T11:53:21;1.43;;;1.20;;
40503;SDS011;42292;49.048;8.374;2022-08-01T11:55:47;2.42;;;1.10;;
40503;SDS011;42292;49.048;8.374;2022-08-01T11:58:15;3.60;;;1.03;;
40503;SDS011;42292;49.048;8.374;2022-08-01T12:00:57;1.90;;;1.10;;
40503;SDS011;42292;49.048;8.374;2022-08-01T12:03:29;2.15;;;1.10;;
40503;SDS011;42292;49.048;8.374;2022-08-01T12:05:57;1.92;;;1.05;;
40503;SDS011;42292;49.048;8.374;2022-08-01T12:08:26;1.70;;;1.00;;
40503;SDS011;42292;49.048;8.374;2022-08-01T12:10:53;1.45;;;0.90;;
40503;SDS011;42292;49.048;8.374;2022-08-01T12:13:21;6.60;;;1.58;;
40503;SDS011;42292;49.048;8.374;2022-08-01T12:15:47;1.63;;;0.90;;
40503;SDS011;42292;49.048;8.374;2022-08-01T12:18:15;1.60;;;1.08;;
40503;SDS011;42292;49.048;8.374;2022-08-01T12:20:44;2.20;;;1.10;;
40503;SDS011;42292;49.048;8.374;2022-08-01T12:23:11;2.08;;;1.35;;
40503;SDS011;42292;49.048;8.374;2022-08-01T12:25:38;2.60;;;1.10;;
40503;SDS011;42292;49.048;8.374;2022-08-01T12:28:09;2.90;;;1.00;;
40503;SDS011;42292;49.048;8.374;2022-08-01T12:30:41;1.45;;;0.93;;
40503;SDS011;42292;49.048;8.374;2022-08-01T12:33:07;1.10;;;0.80;;
40503;SDS011;42292;49.048;8.374;2022-08-01T12:35:35;1.08;;;0.82;;
40503;SDS011;42292;49.048;8.374;2022-08-01T12:38:13;1.60;;;0.93;;
40503;SDS011;42292;49.048;8.374;2022-08-01T12:40:40;2.88;;;1.10;;
40503;SDS011;42292;49.048;8.374;2022-08-01T12:43:08;1.42;;;0.80;;
40503;SDS011;42292;49.048;8.374;2022-08-01T12:45:41;1.00;;;0.80;;
40503;SDS011;42292;49.048;8.374;2022-08-01T12:48:08;1.58;;;1.10;;
40503;SDS011;42292;49.048;8.374;2022-08-01T12:50:45;1.90;;;0.98;;
40503;SDS011;42292;49.048;8.374;2022-08-01T12:53:15;1.40;;;0.90;;
40503;SDS011;42292;49.048;8.374;2022-08-01T12:55:44;1.40;;;1.00;;
40503;SDS011;42292;49.048;8.374;2022-08-01T12:58:13;1.80;;;1.20;;
40503;SDS011;42292;49.048;8.374;2022-08-01T13:00:45;2.83;;;0.98;;
40503;SDS011;42292;49.048;8.374;2022-08-01T13:03:16;1.45;;;0.85;;
40503;SDS011;42292;49.048;8.374;2022-08-01T13:05:50;1.08;;;0.80;;
40503;SDS011;42292;49.048;8.374;2022-08-01T13:08:33;2.13;;;0.90;;
40503;SDS011;42292;49.048;8.374;2022-08-01T13:11:08;3.17;;;0.90;;
40503;SDS011;42292;49.048;8.374;2022-08-01T13:13:40;1.20;;;0.83;;
40503;SDS011;42292;49.048;8.374;2022-08-01T13:16:11;1.67;;;0.70;;
40503;SDS011;42292;49.048;8.374;2022-08-01T13:18:37;2.40;;;0.80;;
40503;SDS011;42292;49.048;8.374;2022-08-01T13:21:17;1.27;;;0.70;;
40503;SDS011;42292;49.048;8.374;2022-08-01T13:26:46;1.08;;;0.80;;
40503;SDS011;42292;49.048;8.374;2022-08-01T13:29:15;3.50;;;0.90;;
40503;SDS011;42292;49.048;8.374;2022-08-01T13:31:45;2.05;;;0.60;;
40503;SDS011;42292;49.048;8.374;2022-08-01T13:34:11;2.00;;;0.90;;
40503;SDS011;42292;49.048;8.374;2022-08-01T13:36:37;1.77;;;0.80;;
40503;SDS011;42292;49.048;8.374;2022-08-01T13:39:05;1.65;;;0.70;;
40503;SDS011;42292;49.048;8.374;2022-08-01T13:41:50;2.83;;;0.70;;
40503;SDS011;42292;49.048;8.374;2022-08-01T13:44:16;0.85;;;0.60;;
40503;SDS011;42292;49.048;8.374;2022-08-01T13:46:47;3.85;;;1.00;;
40503;SDS011;42292;49.048;8.374;2022-08-01T13:49:17;0.82;;;0.75;;
40503;SDS011;42292;49.048;8.374;2022-08-01T13:51:45;1.45;;;0.70;;
40503;SDS011;42292;49.048;8.374;2022-08-01T13:54:11;1.50;;;0.73;;
40503;SDS011;42292;49.048;8.374;2022-08-01T13:56:39;0.80;;;0.60;;
40503;SDS011;42292;49.048;8.374;2022-08-01T13:59:04;2.07;;;0.70;;
40503;SDS011;42292;49.048;8.374;2022-08-01T14:01:31;0.80;;;0.60;;
40503;SDS011;42292;49.048;8.374;2022-08-01T14:03:56;1.60;;;0.70;;
40503;SDS011;42292;49.048;8.374;2022-08-01T14:06:24;2.00;;;0.70;;
40503;SDS011;42292;49.048;8.374;2022-08-01T14:08:52;2.50;;;0.70;;
40503;SDS011;42292;49.048;8.374;2022-08-01T14:11:18;2.28;;;0.60;;
40503;SDS011;42292;49.048;8.374;2022-08-01T14:13:46;0.93;;;0.60;;
40503;SDS011;42292;49.048;8.374;2022-08-01T14:16:16;4.03;;;0.80;;
40503;SDS011;42292;49.048;8.374;2022-08-01T14:18:42;2.03;;;0.70;;
40503;SDS011;42292;49.048;8.374;2022-08-01T14:21:08;1.10;;;0.60;;
40503;SDS011;42292;49.048;8.374;2022-08-01T14:23:35;1.10;;;0.70;;
40503;SDS011;42292;49.048;8.374;2022-08-01T14:26:01;3.03;;;0.80;;
40503;SDS011;42292;49.048;8.374;2022-08-01T14:28:27;2.40;;;0.90;;
40503;SDS011;42292;49.048;8.374;2022-08-01T14:30:53;1.80;;;0.80;;
40503;SDS011;42292;49.048;8.374;2022-08-01T14:33:20;3.50;;;0.60;;
40503;SDS011;42292;49.048;8.374;2022-08-01T14:35:46;1.10;;;0.77;;
40503;SDS011;42292;49.048;8.374;2022-08-01T14:38:14;0.98;;;0.50;;
40503;SDS011;42292;49.048;8.374;2022-08-01T14:40:42;2.15;;;0.60;;
40503;SDS011;42292;49.048;8.374;2022-08-01T14:43:11;1.48;;;0.50;;
40503;SDS011;42292;49.048;8.374;2022-08-01T14:45:37;1.60;;;0.60;;
40503;SDS011;42292;49.048;8.374;2022-08-01T14:48:03;1.80;;;0.70;;
40503;SDS011;42292;49.048;8.374;2022-08-01T14:50:31;1.57;;;0.50;;
40503;SDS011;42292;49.048;8.374;2022-08-01T14:52:57;1.00;;;0.77;;
40503;SDS011;42292;49.048;8.374;2022-08-01T14:55:23;0.80;;;0.50;;
40503;SDS011;42292;49.048;8.374;2022-08-01T14:57:52;2.53;;;0.63;;
40503;SDS011;42292;49.048;8.374;2022-08-01T15:00:18;2.45;;;0.63;;
40503;SDS011;42292;49.048;8.374;2022-08-01T15:02:44;2.57;;;0.73;;
40503;SDS011;42292;49.048;8.374;2022-08-01T15:05:10;2.60;;;0.63;;
40503;SDS011;42292;49.048;8.374;2022-08-01T15:07:37;1.17;;;0.68;;
40503;SDS011;42292;49.048;8.374;2022-08-01T15:10:07;1.98;;;0.70;;
40503;SDS011;42292;49.048;8.374;2022-08-01T15:12:36;0.90;;;0.60;;
40503;SDS011;42292;49.048;8.374;2022-08-01T15:15:02;1.42;;;0.68;;
40503;SDS011;42292;49.048;8.374;2022-08-01T15:17:30;1.67;;;0.70;;
40503;SDS011;42292;49.048;8.374;2022-08-01T15:20:00;1.85;;;0.80;;
40503;SDS011;42292;49.048;8.374;2022-08-01T15:22:28;1.80;;;0.70;;
40503;SDS011;42292;49.048;8.374;2022-08-01T15:24:55;0.90;;;0.70;;
40503;SDS011;42292;49.048;8.374;2022-08-01T15:27:21;2.90;;;0.68;;
40503;SDS011;42292;49.048;8.374;2022-08-01T15:29:47;1.10;;;0.60;;
40503;SDS011;42292;49.048;8.374;2022-08-01T15:32:16;1.23;;;0.73;;
40503;SDS011;42292;49.048;8.374;2022-08-01T15:34:41;1.50;;;0.70;;
40503;SDS011;42292;49.048;8.374;2022-08-01T15:37:07;1.60;;;0.55;;
40503;SDS011;42292;49.048;8.374;2022-08-01T15:39:36;2.63;;;0.73;;
40503;SDS011;42292;49.048;8.374;2022-08-01T15:42:10;2.42;;;0.88;;
40503;SDS011;42292;49.048;8.374;2022-08-01T15:44:37;2.95;;;0.80;;
40503;SDS011;42292;49.048;8.374;2022-08-01T15:47:03;1.88;;;0.80;;
40503;SDS011;42292;49.048;8.374;2022-08-01T15:49:30;1.67;;;0.82;;
40503;SDS011;42292;49.048;8.374;2022-08-01T15:52:00;1.20;;;0.70;;
40503;SDS011;42292;49.048;8.374;2022-08-01T15:54:27;1.10;;;0.70;;
40503;SDS011;42292;49.048;8.374;2022-08-01T15:56:53;1.83;;;0.73;;
40503;SDS011;42292;49.048;8.374;2022-08-01T15:59:18;1.73;;;0.88;;
40503;SDS011;42292;49.048;8.374;2022-08-01T16:01:44;1.60;;;0.80;;
40503;SDS011;42292;49.048;8.374;2022-08-01T16:04:10;1.83;;;0.88;;
40503;SDS011;42292;49.048;8.374;2022-08-01T16:06:36;2.17;;;0.80;;
40503;SDS011;42292;49.048;8.374;2022-08-01T16:09:04;1.85;;;1.10;;
40503;SDS011;42292;49.048;8.374;2022-08-01T16:11:30;4.53;;;0.80;;
40503;SDS011;42292;49.048;8.374;2022-08-01T16:13:56;3.10;;;0.97;;
40503;SDS011;42292;49.048;8.374;2022-08-01T16:16:26;1.85;;;0.80;;
40503;SDS011;42292;49.048;8.374;2022-08-01T16:18:54;3.08;;;1.02;;
40503;SDS011;42292;49.048;8.374;2022-08-01T16:21:20;1.88;;;0.82;;
40503;SDS011;42292;49.048;8.374;2022-08-01T16:23:49;2.40;;;0.77;;
40503;SDS011;42292;49.048;8.374;2022-08-01T16:26:15;2.25;;;0.63;;
40503;SDS011;42292;49.048;8.374;2022-08-01T16:28:41;1.20;;;0.60;;
40503;SDS011;42292;49.048;8.374;2022-08-01T16:31:11;2.47;;;0.70;;
40503;SDS011;42292;49.048;8.374;2022-08-01T16:33:38;3.38;;;0.80;;
40503;SDS011;42292;49.048;8.374;2022-08-01T16:36:07;4.20;;;3.50;;
40503;SDS011;42292;49.048;8.374;2022-08-01T16:38:33;1.05;;;0.50;;
40503;SDS011;42292;49.048;8.374;2022-08-01T16:40:58;2.43;;;0.50;;
40503;SDS011;42292;49.048;8.374;2022-08-01T16:43:24;2.63;;;0.60;;
40503;SDS011;42292;49.048;8.374;2022-08-01T16:45:50;1.23;;;0.50;;
40503;SDS011;42292;49.048;8.374;2022-08-01T16:48:15;0.63;;;0.50;;
40503;SDS011;42292;49.048;8.374;2022-08-01T16:50:45;1.65;;;0.60;;
40503;SDS011;42292;49.048;8.374;2022-08-01T16:53:14;0.77;;;0.52;;
40503;SDS011;42292;49.048;8.374;2022-08-01T16:55:48;2.63;;;0.57;;
40503;SDS011;42292;49.048;8.374;2022-08-01T16:58:17;2.10;;;0.50;;
40503;SDS011;42292;49.048;8.374;2022-08-01T17:00:44;1.83;;;0.60;;
40503;SDS011;42292;49.048;8.374;2022-08-01T17:03:11;2.00;;;0.65;;
40503;SDS011;42292;49.048;8.374;2022-08-01T17:05:38;0.95;;;0.40;;
40503;SDS011;42292;49.048;8.374;2022-08-01T17:08:04;3.20;;;0.52;;
40503;SDS011;42292;49.048;8.374;2022-08-01T17:10:32;1.13;;;0.60;;
40503;SDS011;42292;49.048;8.374;2022-08-01T17:12:58;3.67;;;0.50;;
40503;SDS011;42292;49.048;8.374;2022-08-01T17:15:23;0.90;;;0.60;;
40503;SDS011;42292;49.048;8.374;2022-08-01T17:17:52;1.80;;;0.40;;
40503;SDS011;42292;49.048;8.374;2022-08-01T17:20:21;1.27;;;0.50;;
40503;SDS011;42292;49.048;8.374;2022-08-01T17:22:47;1.08;;;0.68;;
40503;SDS011;42292;49.048;8.374;2022-08-01T17:25:13;1.10;;;0.70;;
40503;SDS011;42292;49.048;8.374;2022-08-01T17:27:45;2.92;;;0.63;;
40503;SDS011;42292;49.048;8.374;2022-08-01T17:30:15;1.80;;;0.50;;
40503;SDS011;42292;49.048;8.374;2022-08-01T17:32:45;1.65;;;0.63;;
40503;SDS011;42292;49.048;8.374;2022-08-01T17:35:12;0.90;;;0.55;;
40503;SDS011;42292;49.048;8.374;2022-08-01T17:37:38;0.38;;;0.30;;
40503;SDS011;42292;49.048;8.374;2022-08-01T17:40:06;1.08;;;0.70;;
40503;SDS011;42292;49.048;8.374;2022-08-01T17:42:36;3.50;;;0.80;;
40503;SDS011;42292;49.048;8.374;2022-08-01T17:45:06;2.40;;;0.50;;
40503;SDS011;42292;49.048;8.374;2022-08-01T17:47:38;1.02;;;0.45;;
40503;SDS011;42292;49.048;8.374;2022-08-01T17:50:07;1.27;;;0.50;;
40503;SDS011;42292;49.048;8.374;2022-08-01T17:52:35;1.40;;;0.50;;
40503;SDS011;42292;49.048;8.374;2022-08-01T17:55:01;2.07;;;0.70;;
40503;SDS011;42292;49.048;8.374;2022-08-01T17:57:29;1.75;;;0.60;;
40503;SDS011;42292;49.048;8.374;2022-08-01T17:59:55;2.43;;;0.60;;
40503;SDS011;42292;49.048;8.374;2022-08-01T18:02:22;2.08;;;0.70;;
40503;SDS011;42292;49.048;8.374;2022-08-01T18:04:48;1.40;;;0.47;;
40503;SDS011;42292;49.048;8.374;2022-08-01T18:07:16;2.33;;;0.70;;
40503;SDS011;42292;49.048;8.374;2022-08-01T18:09:42;1.83;;;0.60;;
40503;SDS011;42292;49.048;8.374;2022-08-01T18:12:09;1.60;;;0.55;;
40503;SDS011;42292;49.048;8.374;2022-08-01T18:14:35;2.40;;;0.65;;
40503;SDS011;42292;49.048;8.374;2022-08-01T18:17:01;0.83;;;0.37;;
40503;SDS011;42292;49.048;8.374;2022-08-01T18:19:27;1.07;;;0.63;;
40503;SDS011;42292;49.048;8.374;2022-08-01T18:21:57;1.83;;;0.50;;
40503;SDS011;42292;49.048;8.374;2022-08-01T18:24:22;0.80;;;0.60;;
40503;SDS011;42292;49.048;8.374;2022-08-01T18:26:51;1.35;;;0.70;;
40503;SDS011;42292;49.048;8.374;2022-08-01T18:29:18;2.40;;;0.73;;
40503;SDS011;42292;49.048;8.374;2022-08-01T18:31:46;1.60;;;0.60;;
40503;SDS011;42292;49.048;8.374;2022-08-01T18:34:12;0.77;;;0.50;;
40503;SDS011;42292;49.048;8.374;2022-08-01T18:36:38;3.05;;;0.60;;
40503;SDS011;42292;49.048;8.374;2022-08-01T18:39:04;0.60;;;0.30;;
40503;SDS011;42292;49.048;8.374;2022-08-01T18:41:32;0.50;;;0.45;;
40503;SDS011;42292;49.048;8.374;2022-08-01T18:43:59;2.30;;;0.50;;
40503;SDS011;42292;49.048;8.374;2022-08-01T18:46:25;2.50;;;0.50;;
40503;SDS011;42292;49.048;8.374;2022-08-01T18:48:53;1.90;;;0.63;;
40503;SDS011;42292;49.048;8.374;2022-08-01T18:51:18;1.70;;;0.50;;
40503;SDS011;42292;49.048;8.374;2022-08-01T18:53:46;1.50;;;0.50;;
40503;SDS011;42292;49.048;8.374;2022-08-01T18:56:12;1.00;;;0.40;;
40503;SDS011;42292;49.048;8.374;2022-08-01T18:58:38;1.00;;;0.50;;
40503;SDS011;42292;49.048;8.374;2022-08-01T19:01:04;1.40;;;0.50;;
40503;SDS011;42292;49.048;8.374;2022-08-01T19:03:30;1.20;;;0.50;;
40503;SDS011;42292;49.048;8.374;2022-08-01T19:05:55;0.63;;;0.60;;
40503;SDS011;42292;49.048;8.374;2022-08-01T19:08:21;0.60;;;0.43;;
40503;SDS011;42292;49.048;8.374;2022-08-01T19:10:51;1.00;;;0.50;;
40503;SDS011;42292;49.048;8.374;2022-08-01T19:13:19;2.15;;;0.57;;
40503;SDS011;42292;49.048;8.374;2022-08-01T19:15:45;0.63;;;0.50;;
40503;SDS011;42292;49.048;8.374;2022-08-01T19:18:13;1.35;;;0.60;;
40503;SDS011;42292;49.048;8.374;2022-08-01T19:20:39;0.90;;;0.52;;
40503;SDS011;42292;49.048;8.374;2022-08-01T19:23:07;1.17;;;0.63;;
40503;SDS011;42292;49.048;8.374;2022-08-01T19:25:53;1.52;;;0.65;;
40503;SDS011;42292;49.048;8.374;2022-08-01T19:28:24;0.90;;;0.55;;
40503;SDS011;42292;49.048;8.374;2022-08-01T19:30:53;1.85;;;0.60;;